METAR Data
IDs: Format: Raw Decoded Include TAF

Data at: 0321 UTC 19 Oct 2021

KIAH 190253Z 16003KT 10SM CLR 16/12 A3010 RMK AO2 SLP192 T01610122 52016